Time;durP1;ratioP1;P1;durP2;ratioP2;P2;SDS_P1;SDS_P2;PMS_P1;PMS_P2;Temp;Humidity;BMP_temperature;BMP_pressure;BME280_temperature;BME280_humidity;BME280_pressure;Samples;Min_cycle;Max_cycle;Signal;HPM_P1;HPM_P2
2022/06/14 00:01:13;;;;;;;5.22;2.65;;;15.00;99.90;;;;;;2064182;28;20481;-69
2022/06/14 00:02:13;;;;;;;5.00;3.00;;;15.00;99.90;;;;;;2064056;28;20026;-68
2022/06/14 00:03:14;;;;;;;4.07;2.67;;;15.00;99.90;;;;;;2064123;28;20037;-68
2022/06/14 00:04:15;;;;;;;3.70;2.60;;;14.90;99.90;;;;;;2064115;28;20018;-69
2022/06/14 00:05:15;;;;;;;4.72;2.70;;;14.90;99.90;;;;;;2064124;28;20022;-69
2022/06/14 00:06:20;;;;;;;6.32;3.10;;;14.90;99.90;;;;;;2055472;28;20520;-68
2022/06/14 00:07:21;;;;;;;6.55;3.15;;;14.90;99.90;;;;;;2047890;28;20035;-69
2022/06/14 00:08:25;;;;;;;5.13;2.70;;;14.90;99.90;;;;;;2055378;28;20037;-68
2022/06/14 00:09:25;;;;;;;4.15;2.50;;;14.80;99.90;;;;;;2063940;28;20062;-69
2022/06/14 00:10:26;;;;;;;4.18;2.88;;;14.80;99.90;;;;;;2063595;28;20045;-69
2022/06/14 00:11:32;;;;;;;5.13;2.78;;;14.80;99.90;;;;;;2064037;28;20034;-69
2022/06/14 00:12:33;;;;;;;4.78;2.85;;;14.80;99.90;;;;;;2063870;28;20103;-69
2022/06/14 00:13:34;;;;;;;3.75;2.60;;;14.80;99.90;;;;;;2064072;28;20530;-68
2022/06/14 00:14:35;;;;;;;4.97;2.60;;;14.70;99.90;;;;;;2064062;28;20093;-69
2022/06/14 00:15:36;;;;;;;3.92;2.50;;;14.70;99.90;;;;;;2064048;28;20120;-69
2022/06/14 00:16:37;;;;;;;4.25;2.20;;;14.80;99.90;;;;;;2055331;28;20030;-69
2022/06/14 00:17:38;;;;;;;3.72;2.40;;;14.70;99.90;;;;;;2055422;28;20051;-68
2022/06/14 00:18:39;;;;;;;3.95;2.33;;;14.70;99.90;;;;;;2063999;28;20042;-68
2022/06/14 00:19:39;;;;;;;4.07;2.38;;;14.70;99.90;;;;;;2063755;28;20048;-69
2022/06/14 00:20:41;;;;;;;2.97;2.35;;;14.70;99.90;;;;;;2054655;28;20068;-68
2022/06/14 00:21:42;;;;;;;3.50;2.47;;;14.60;99.90;;;;;;2055274;28;20054;-69
2022/06/14 00:22:42;;;;;;;4.05;2.30;;;14.60;99.90;;;;;;2055283;28;20034;-69
2022/06/14 00:23:43;;;;;;;3.40;2.35;;;14.60;99.90;;;;;;2055036;28;20035;-69
2022/06/14 00:24:44;;;;;;;5.00;2.28;;;14.60;99.90;;;;;;2063787;28;20026;-69
2022/06/14 00:25:51;;;;;;;3.38;2.50;;;14.60;99.90;;;;;;2063742;28;20052;-69
2022/06/14 00:26:52;;;;;;;5.35;2.58;;;14.60;99.90;;;;;;2063878;28;20031;-69
2022/06/14 00:27:52;;;;;;;2.88;2.10;;;14.60;99.90;;;;;;2063752;28;20500;-68
2022/06/14 00:28:53;;;;;;;3.92;2.45;;;14.50;99.90;;;;;;2055010;28;20077;-70
2022/06/14 00:29:54;;;;;;;3.78;2.05;;;14.50;99.90;;;;;;2054895;28;20030;-68
2022/06/14 00:31:00;;;;;;;3.15;2.17;;;14.50;99.90;;;;;;2063686;28;20046;-68
2022/06/14 00:32:00;;;;;;;4.47;2.53;;;14.50;99.90;;;;;;2063745;28;20393;-68
2022/06/14 00:33:01;;;;;;;3.90;2.47;;;14.50;99.90;;;;;;2063609;28;20073;-68
2022/06/14 00:34:02;;;;;;;4.78;2.20;;;14.40;99.90;;;;;;2063416;28;20038;-69
2022/06/14 00:35:02;;;;;;;5.85;2.80;;;14.40;99.90;;;;;;2063557;28;20038;-69
2022/06/14 00:36:07;;;;;;;4.05;2.33;;;14.40;99.90;;;;;;2063573;28;20080;-68
2022/06/14 00:37:14;;;;;;;4.35;2.30;;;14.40;99.90;;;;;;2063601;28;20034;-68
2022/06/14 00:38:16;;;;;;;2.92;2.30;;;14.40;99.90;;;;;;2063289;28;20048;-68
2022/06/14 00:39:16;;;;;;;4.78;2.35;;;14.30;99.90;;;;;;2063566;28;20676;-68
2022/06/14 00:40:21;;;;;;;3.50;2.17;;;14.30;99.90;;;;;;2063035;28;20061;-68
2022/06/14 00:41:37;;;;;;;3.17;2.20;;;14.30;99.90;;;;;;2063643;28;20575;-68
2022/06/14 00:42:38;;;;;;;2.75;2.10;;;14.30;99.90;;;;;;2054912;28;20035;-69
2022/06/14 00:43:38;;;;;;;4.38;2.20;;;14.30;99.90;;;;;;2054869;28;20045;-67
2022/06/14 00:44:39;;;;;;;2.42;2.10;;;14.20;99.90;;;;;;2063619;28;20034;-70
2022/06/14 00:45:40;;;;;;;2.67;2.10;;;14.30;99.90;;;;;;2055148;28;20089;-68
2022/06/14 00:46:47;;;;;;;4.78;2.20;;;14.30;99.90;;;;;;2054976;28;20070;-69
2022/06/14 00:48:00;;;;;;;3.65;1.92;;;14.20;99.90;;;;;;2047165;29;20071;-68
2022/06/14 00:49:13;;;;;;;3.13;2.30;;;14.20;99.90;;;;;;2050446;28;20086;-68
2022/06/14 00:50:22;;;;;;;3.67;2.40;;;14.20;99.90;;;;;;2063127;28;20036;-70
2022/06/14 00:51:26;;;;;;;4.15;2.58;;;14.20;99.90;;;;;;2063576;28;20880;-70
2022/06/14 00:52:42;;;;;;;3.38;2.25;;;14.10;99.90;;;;;;2063635;28;20072;-67
2022/06/14 00:54:10;;;;;;;3.25;2.30;;;14.10;99.90;;;;;;2063472;28;20558;-68
2022/06/14 00:55:19;;;;;;;3.42;2.25;;;14.10;99.90;;;;;;2063565;28;20026;-68
2022/06/14 00:56:45;;;;;;;3.80;2.22;;;14.10;99.90;;;;;;2054772;28;20131;-68
2022/06/14 00:57:52;;;;;;;5.05;2.20;;;14.10;99.90;;;;;;2058501;28;20069;-67
2022/06/14 00:59:01;;;;;;;3.25;2.70;;;14.10;99.90;;;;;;2063749;28;20429;-68
2022/06/14 01:00:07;;;;;;;2.47;2.20;;;14.10;99.90;;;;;;2063231;28;20077;-68
2022/06/14 01:01:14;;;;;;;3.40;2.30;;;14.10;99.90;;;;;;2054872;28;20023;-69
2022/06/14 01:02:23;;;;;;;4.00;2.20;;;14.10;99.90;;;;;;2055742;28;20374;-68
2022/06/14 01:03:27;;;;;;;3.92;2.10;;;14.00;99.90;;;;;;2054644;28;20106;-70
2022/06/14 01:04:30;;;;;;;3.53;2.33;;;14.00;99.90;;;;;;2055132;28;20097;-69
2022/06/14 01:07:01;;;;;;;4.10;2.35;;;14.00;99.90;;;;;;2058264;28;20485;-69
2022/06/14 01:08:02;;;;;;;4.88;2.80;;;14.00;99.90;;;;;;2063367;28;20113;-68
2022/06/14 01:09:14;;;;;;;3.28;2.40;;;14.00;99.90;;;;;;2063390;28;20026;-69
2022/06/14 01:10:26;;;;;;;4.18;2.50;;;13.90;99.90;;;;;;2063162;28;20089;-69
2022/06/14 01:11:44;;;;;;;2.92;2.25;;;13.90;99.90;;;;;;2063296;28;20428;-69
2022/06/14 01:12:49;;;;;;;2.40;2.10;;;13.90;99.90;;;;;;2063405;28;20038;-68
2022/06/14 01:13:50;;;;;;;3.53;2.33;;;13.90;99.90;;;;;;2054815;28;20134;-68
2022/06/14 01:15:17;;;;;;;3.95;2.17;;;13.80;99.90;;;;;;2055087;28;20102;-68
2022/06/14 01:16:18;;;;;;;2.70;2.10;;;13.80;99.90;;;;;;2055114;28;20042;-68
2022/06/14 01:17:20;;;;;;;5.47;2.28;;;13.80;99.90;;;;;;2047109;29;20059;-68
2022/06/14 01:18:25;;;;;;;3.47;2.20;;;13.80;99.90;;;;;;2055186;28;20106;-68
2022/06/14 01:19:26;;;;;;;4.40;2.88;;;13.80;99.90;;;;;;2063755;28;20025;-68
2022/06/14 01:20:28;;;;;;;4.60;2.78;;;13.80;99.90;;;;;;2063332;28;20229;-68
2022/06/14 01:21:29;;;;;;;4.03;2.42;;;13.70;99.90;;;;;;2063821;28;20025;-68
2022/06/14 01:22:31;;;;;;;4.20;2.28;;;13.70;99.90;;;;;;2063665;28;20092;-68
2022/06/14 01:23:32;;;;;;;4.60;2.60;;;13.70;99.90;;;;;;2063442;28;20489;-67
2022/06/14 01:24:34;;;;;;;5.13;2.33;;;13.70;99.90;;;;;;2063659;28;20018;-68
2022/06/14 01:25:39;;;;;;;3.50;2.50;;;13.70;99.90;;;;;;2063483;28;20404;-68
2022/06/14 01:26:40;;;;;;;3.58;2.30;;;13.70;99.90;;;;;;2063594;28;20050;-68
2022/06/14 01:27:42;;;;;;;4.53;2.40;;;13.70;99.90;;;;;;2054784;28;20029;-68
2022/06/14 01:28:47;;;;;;;5.05;2.40;;;13.60;99.90;;;;;;2054968;28;20432;-68
2022/06/14 01:29:57;;;;;;;4.35;2.30;;;13.60;99.90;;;;;;2063634;28;20437;-68
2022/06/14 01:30:59;;;;;;;4.43;2.50;;;13.60;99.90;;;;;;2054964;28;20031;-68
2022/06/14 01:32:02;;;;;;;2.75;2.30;;;13.60;99.90;;;;;;2055124;28;20037;-68
2022/06/14 01:33:09;;;;;;;5.43;2.50;;;13.60;99.90;;;;;;2063438;28;20114;-68
2022/06/14 01:34:10;;;;;;;3.88;2.50;;;13.60;99.90;;;;;;2063308;28;20034;-68
2022/06/14 01:35:16;;;;;;;4.32;2.38;;;13.60;99.90;;;;;;2063468;28;20057;-68
2022/06/14 01:36:23;;;;;;;4.82;2.67;;;13.60;99.90;;;;;;2063541;28;20070;-68
2022/06/14 01:37:24;;;;;;;5.45;2.80;;;13.50;99.90;;;;;;2063511;28;20038;-68
2022/06/14 01:38:24;;;;;;;3.67;2.60;;;13.50;99.90;;;;;;2063447;28;20034;-68
2022/06/14 01:39:26;;;;;;;7.80;2.70;;;13.50;99.90;;;;;;2054618;28;20101;-68
2022/06/14 01:40:50;;;;;;;5.40;2.70;;;13.50;99.90;;;;;;2046397;28;20035;-68
2022/06/14 01:42:22;;;;;;;6.15;2.75;;;13.50;99.90;;;;;;2041243;29;20035;-68
2022/06/14 01:43:48;;;;;;;5.18;2.45;;;13.50;99.90;;;;;;2063280;28;20075;-68
2022/06/14 01:45:06;;;;;;;4.22;2.53;;;13.40;99.90;;;;;;2063402;28;20072;-68
2022/06/14 01:46:25;;;;;;;3.15;2.40;;;13.40;99.90;;;;;;2063609;28;20026;-68
2022/06/14 01:47:32;;;;;;;4.60;2.83;;;13.40;99.90;;;;;;2063574;28;20030;-69
2022/06/14 01:48:42;;;;;;;4.93;2.70;;;13.40;99.90;;;;;;2054774;28;20031;-68
2022/06/14 01:51:50;;;;;;;3.92;2.45;;;13.40;99.90;;;;;;2063561;28;19910;-68
2022/06/14 01:53:16;;;;;;;6.05;3.30;;;13.30;99.90;;;;;;2063630;28;20080;-68
2022/06/14 01:54:43;;;;;;;4.85;2.60;;;13.30;99.90;;;;;;2063643;28;20035;-68
2022/06/14 01:56:00;;;;;;;4.10;2.50;;;13.30;99.90;;;;;;2062869;28;20511;-68
2022/06/14 01:57:21;;;;;;;4.50;2.67;;;13.30;99.90;;;;;;2063431;28;20125;-68
2022/06/14 01:58:31;;;;;;;5.07;2.30;;;13.30;99.90;;;;;;2063600;28;20062;-68
2022/06/14 01:59:45;;;;;;;4.43;2.38;;;13.30;99.90;;;;;;2063426;28;20553;-68
2022/06/14 02:00:55;;;;;;;7.20;2.67;;;13.30;99.90;;;;;;2063164;28;20037;-68
2022/06/14 02:02:08;;;;;;;6.75;2.85;;;13.30;99.90;;;;;;2064737;28;20037;-68
2022/06/14 02:04:44;;;;;;;3.72;2.60;;;13.30;99.90;;;;;;2065097;28;20625;-68
2022/06/14 02:06:00;;;;;;;4.28;2.40;;;13.30;99.90;;;;;;2065125;28;20092;-68
2022/06/14 02:07:24;;;;;;;4.38;2.50;;;13.30;99.90;;;;;;2065239;28;20384;-68
2022/06/14 02:08:32;;;;;;;4.35;2.47;;;13.40;99.90;;;;;;2065207;28;20033;-69
2022/06/14 02:09:46;;;;;;;3.47;2.20;;;13.40;99.90;;;;;;2065078;28;20014;-67
2022/06/14 02:11:04;;;;;;;7.07;2.80;;;13.40;99.90;;;;;;2064717;28;20034;-68
2022/06/14 02:12:08;;;;;;;5.95;2.90;;;13.40;99.90;;;;;;2064993;28;20038;-68
2022/06/14 02:13:29;;;;;;;4.40;2.78;;;13.40;99.90;;;;;;2064818;28;20485;-68
2022/06/14 02:14:48;;;;;;;4.55;2.55;;;13.40;99.90;;;;;;2064973;28;20057;-68
2022/06/14 02:15:56;;;;;;;2.45;1.95;;;13.50;99.90;;;;;;2064746;28;20034;-69
2022/06/14 02:17:07;;;;;;;6.57;2.28;;;13.50;99.90;;;;;;2064847;28;20029;-68
2022/06/14 02:18:13;;;;;;;;;;;13.50;99.90;;;;;;2065209;28;20031;-68
2022/06/14 02:19:29;;;;;;;6.63;2.50;;;13.40;99.90;;;;;;2064755;28;19914;-68
2022/06/14 02:20:47;;;;;;;3.88;2.20;;;13.50;99.90;;;;;;2064153;28;20038;-70
2022/06/14 02:22:24;;;;;;;3.95;2.13;;;13.40;99.90;;;;;;2056017;28;20039;-70
2022/06/14 02:23:28;;;;;;;5.35;2.20;;;13.40;99.90;;;;;;2048530;28;20031;-70
2022/06/14 02:24:35;;;;;;;3.78;2.17;;;13.40;99.90;;;;;;2064755;28;20080;-69
2022/06/14 02:25:51;;;;;;;3.30;2.40;;;13.30;99.90;;;;;;2064597;28;20046;-70
2022/06/14 02:27:01;;;;;;;5.10;2.10;;;13.30;99.90;;;;;;2064601;28;20033;-69
2022/06/14 02:28:13;;;;;;;2.63;2.17;;;13.30;99.90;;;;;;2064741;28;20065;-70
2022/06/14 02:29:23;;;;;;;2.67;2.35;;;13.30;99.90;;;;;;2064798;28;20033;-69
2022/06/14 02:30:34;;;;;;;3.15;2.47;;;13.30;99.90;;;;;;2064394;28;20068;-70
2022/06/14 02:31:40;;;;;;;5.15;2.60;;;13.30;99.90;;;;;;2064680;28;20238;-69
2022/06/14 02:32:56;;;;;;;3.45;2.22;;;13.30;99.90;;;;;;2064609;28;20030;-69
2022/06/14 02:34:22;;;;;;;3.20;2.00;;;13.30;99.90;;;;;;2064582;28;20054;-69
2022/06/14 02:35:35;;;;;;;4.80;2.45;;;13.30;99.90;;;;;;2051442;28;20505;-69
2022/06/14 02:36:43;;;;;;;3.53;2.20;;;13.30;99.90;;;;;;2064586;28;20038;-70
2022/06/14 02:37:50;;;;;;;3.60;2.15;;;13.30;99.90;;;;;;2055993;28;20034;-69
2022/06/14 02:39:05;;;;;;;4.45;2.30;;;13.30;99.90;;;;;;2056709;28;20030;-69
2022/06/14 02:40:18;;;;;;;4.50;2.20;;;13.30;99.90;;;;;;2055446;28;20489;-71
2022/06/14 02:41:21;;;;;;;5.35;2.45;;;13.20;99.90;;;;;;2057877;28;20031;-70
2022/06/14 02:42:33;;;;;;;3.50;2.35;;;13.20;99.90;;;;;;2064633;28;20054;-71
2022/06/14 02:43:45;;;;;;;3.35;2.13;;;13.20;99.90;;;;;;2064668;28;20088;-69
2022/06/14 02:44:51;;;;;;;4.38;2.33;;;13.20;99.90;;;;;;2065010;28;20029;-69
2022/06/14 02:46:01;;;;;;;4.35;2.50;;;13.20;99.90;;;;;;2065145;28;20114;-69
2022/06/14 02:47:11;;;;;;;2.85;2.20;;;13.20;99.90;;;;;;2056372;28;20045;-68
2022/06/14 02:48:17;;;;;;;3.13;2.05;;;13.20;99.90;;;;;;2058264;28;20094;-69
2022/06/14 02:49:33;;;;;;;3.17;2.13;;;13.20;99.90;;;;;;2065544;28;20113;-69
2022/06/14 02:50:58;;;;;;;2.50;2.00;;;13.20;99.90;;;;;;2056340;28;20047;-69
2022/06/14 02:52:14;;;;;;;3.75;2.20;;;13.20;99.90;;;;;;2054096;28;20050;-69
2022/06/14 02:53:22;;;;;;;4.00;2.08;;;13.20;99.90;;;;;;2064811;28;20457;-69
2022/06/14 02:54:31;;;;;;;3.63;2.28;;;13.20;99.90;;;;;;2064925;28;20500;-69
2022/06/14 02:55:38;;;;;;;3.88;2.17;;;13.20;99.90;;;;;;2064886;28;20121;-69
2022/06/14 02:56:44;;;;;;;2.72;2.28;;;13.20;99.90;;;;;;2064576;28;20030;-69
2022/06/14 02:57:52;;;;;;;4.07;2.25;;;13.20;99.90;;;;;;2064601;28;20038;-70
2022/06/14 02:59:22;;;;;;;3.90;2.45;;;13.20;99.90;;;;;;2064492;28;20034;-70
2022/06/14 03:00:31;;;;;;;4.93;2.38;;;13.20;99.90;;;;;;2063985;28;20113;-69
2022/06/14 03:01:46;;;;;;;5.85;2.30;;;13.20;99.90;;;;;;2064481;28;20474;-68
2022/06/14 03:03:16;;;;;;;4.45;2.30;;;13.20;99.90;;;;;;2055813;28;20637;-70
2022/06/14 03:04:26;;;;;;;5.25;2.40;;;13.20;99.90;;;;;;2059556;28;20038;-70
2022/06/14 03:05:30;;;;;;;5.22;2.22;;;13.10;99.90;;;;;;2055852;28;20030;-69
2022/06/14 03:06:40;;;;;;;3.80;2.40;;;13.10;99.90;;;;;;2056327;28;20113;-69
2022/06/14 03:08:04;;;;;;;3.95;2.20;;;13.10;99.90;;;;;;2064558;28;20181;-69
2022/06/14 03:09:15;;;;;;;4.82;2.25;;;13.10;99.90;;;;;;2064570;28;20030;-70
2022/06/14 03:10:16;;;;;;;4.15;2.20;;;13.20;99.90;;;;;;2064172;28;20065;-70
2022/06/14 03:11:50;;;;;;;3.85;2.45;;;13.20;99.90;;;;;;2055610;28;20030;-69
2022/06/14 03:13:03;;;;;;;4.60;2.47;;;13.20;99.90;;;;;;2060010;28;20039;-69
2022/06/14 03:14:25;;;;;;;3.75;2.17;;;13.20;99.90;;;;;;2064279;28;20042;-70
2022/06/14 03:15:38;;;;;;;3.00;2.30;;;13.20;99.90;;;;;;2055634;28;20034;-68
2022/06/14 03:17:00;;;;;;;4.95;2.80;;;13.20;99.90;;;;;;2057477;28;20062;-70
2022/06/14 03:18:22;;;;;;;4.72;2.40;;;13.20;99.90;;;;;;2055807;28;20072;-70
2022/06/14 03:19:45;;;;;;;3.47;2.53;;;13.20;99.90;;;;;;2058761;28;20025;-69
2022/06/14 03:20:58;;;;;;;5.30;2.70;;;13.30;99.90;;;;;;2064208;28;20129;-69
2022/06/14 03:22:05;;;;;;;4.22;2.90;;;13.20;99.90;;;;;;2055658;28;20488;-70
2022/06/14 03:23:18;;;;;;;5.80;2.70;;;13.20;99.90;;;;;;2056867;28;20034;-69
2022/06/14 03:24:43;;;;;;;4.20;2.13;;;13.30;99.90;;;;;;2064440;28;20673;-69
2022/06/14 03:25:55;;;;;;;4.00;2.22;;;13.30;99.90;;;;;;2064254;28;20061;-71
2022/06/14 03:27:08;;;;;;;3.10;2.60;;;13.30;99.90;;;;;;2064325;28;20027;-69
2022/06/14 03:28:22;;;;;;;4.80;2.50;;;13.30;99.90;;;;;;2064290;28;20030;-70
2022/06/14 03:29:35;;;;;;;3.90;2.20;;;13.30;99.90;;;;;;2064265;28;20546;-69
2022/06/14 03:30:55;;;;;;;6.07;2.30;;;13.30;99.90;;;;;;2063844;28;20037;-69
2022/06/14 03:32:07;;;;;;;4.80;2.17;;;13.30;99.90;;;;;;2064216;28;20046;-69
2022/06/14 03:33:35;;;;;;;3.70;2.28;;;13.30;99.90;;;;;;2064122;28;20042;-69
2022/06/14 03:34:43;;;;;;;4.38;2.30;;;13.40;99.90;;;;;;2055387;28;20608;-68
2022/06/14 03:35:50;;;;;;;5.60;2.30;;;13.30;99.90;;;;;;2056514;28;20073;-70
2022/06/14 03:36:53;;;;;;;4.15;2.45;;;13.30;99.90;;;;;;2055243;28;20027;-69
2022/06/14 03:37:56;;;;;;;3.95;2.33;;;13.40;99.90;;;;;;2055731;28;20030;-68
2022/06/14 03:39:08;;;;;;;4.18;2.40;;;13.40;99.90;;;;;;2064111;28;20108;-70
2022/06/14 03:40:14;;;;;;;7.22;2.60;;;13.40;99.90;;;;;;2063621;28;20045;-69
2022/06/14 03:41:19;;;;;;;4.63;2.25;;;13.40;99.90;;;;;;2064247;28;20031;-70
2022/06/14 03:42:20;;;;;;;4.53;2.70;;;13.40;99.90;;;;;;2064085;28;20381;-70
2022/06/14 03:43:21;;;;;;;4.72;2.40;;;13.40;99.90;;;;;;2064065;28;20064;-68
2022/06/14 03:44:25;;;;;;;5.13;2.25;;;13.40;99.90;;;;;;2064079;28;20023;-70
2022/06/14 03:45:35;;;;;;;5.10;2.30;;;13.40;99.90;;;;;;2063950;28;20102;-68
2022/06/14 03:46:43;;;;;;;3.60;2.50;;;13.40;99.90;;;;;;2055487;28;20486;-69
2022/06/14 03:47:44;;;;;;;5.10;2.28;;;13.40;99.90;;;;;;2056430;28;20031;-68
2022/06/14 03:48:48;;;;;;;5.35;2.75;;;13.40;99.90;;;;;;2064084;28;20034;-69
2022/06/14 03:50:00;;;;;;;6.85;2.50;;;13.40;99.90;;;;;;2064008;28;20030;-70
2022/06/14 03:51:07;;;;;;;6.30;2.38;;;13.40;99.90;;;;;;2063937;28;20049;-70
2022/06/14 03:52:26;;;;;;;4.93;2.10;;;13.40;99.90;;;;;;2055274;28;20031;-69
2022/06/14 03:53:48;;;;;;;3.97;1.98;;;13.40;99.90;;;;;;2057857;28;20512;-69
2022/06/14 03:54:57;;;;;;;2.90;2.20;;;13.40;99.90;;;;;;2064096;28;20019;-69
2022/06/14 03:56:34;;;;;;;4.35;2.22;;;13.50;99.90;;;;;;2064010;28;20032;-69
2022/06/14 03:57:42;;;;;;;4.10;2.30;;;13.50;99.90;;;;;;2063308;28;20042;-69
2022/06/14 03:58:48;;;;;;;5.03;2.25;;;13.50;99.90;;;;;;2064076;28;20118;-69
2022/06/14 04:00:18;;;;;;;5.18;2.50;;;13.50;99.90;;;;;;2063942;28;20109;-70
2022/06/14 04:01:26;;;;;;;5.47;2.50;;;13.40;99.90;;;;;;2063868;28;20481;-69
2022/06/14 04:02:57;;;;;;;5.43;2.33;;;13.40;99.90;;;;;;2063877;28;20030;-68
2022/06/14 04:04:06;;;;;;;5.82;2.30;;;13.50;99.90;;;;;;2063870;28;20037;-69
2022/06/14 04:05:17;;;;;;;4.70;2.30;;;13.50;99.90;;;;;;2063892;28;20042;-69
2022/06/14 04:06:52;;;;;;;4.22;2.20;;;13.50;99.90;;;;;;2063903;28;20473;-70
2022/06/14 04:08:07;;;;;;;4.65;2.40;;;13.50;99.90;;;;;;2063940;28;20030;-70
2022/06/14 04:09:27;;;;;;;3.72;2.30;;;13.50;99.90;;;;;;2055368;28;20035;-69
2022/06/14 04:10:36;;;;;;;5.05;2.47;;;13.50;99.90;;;;;;2057510;28;20041;-69
2022/06/14 04:11:55;;;;;;;6.22;2.40;;;13.50;99.90;;;;;;2055194;28;20023;-70
2022/06/14 04:13:29;;;;;;;4.65;2.47;;;13.60;99.90;;;;;;2055131;28;20338;-69
2022/06/14 04:14:48;;;;;;;6.93;2.83;;;13.60;99.90;;;;;;2060071;28;20080;-69
2022/06/14 04:16:03;;;;;;;6.13;2.40;;;13.60;99.90;;;;;;2064079;28;20085;-69
2022/06/14 04:17:21;;;;;;;5.70;2.80;;;13.60;99.90;;;;;;2063965;28;20038;-69
2022/06/14 04:18:38;;;;;;;5.57;2.20;;;13.60;99.90;;;;;;2063856;28;20555;-71
2022/06/14 04:20:11;;;;;;;4.30;2.40;;;13.60;99.90;;;;;;2063779;28;20046;-69
2022/06/14 04:21:19;;;;;;;5.68;2.30;;;13.70;99.90;;;;;;2063772;28;20105;-69
2022/06/14 04:22:43;;;;;;;5.32;2.50;;;13.70;99.90;;;;;;2063812;28;20065;-68
2022/06/14 04:23:59;;;;;;;3.70;2.33;;;13.70;99.90;;;;;;2063358;28;20034;-69
2022/06/14 04:25:20;;;;;;;4.03;2.20;;;13.80;99.90;;;;;;2054962;28;20537;-68
2022/06/14 04:26:51;;;;;;;6.32;2.30;;;13.80;99.90;;;;;;2057999;28;20069;-68
2022/06/14 04:28:02;;;;;;;6.10;2.30;;;14.10;99.90;;;;;;2054931;28;20034;-68
2022/06/14 04:29:14;;;;;;;4.05;2.00;;;14.40;99.90;;;;;;2056486;28;20129;-70
2022/06/14 04:30:25;;;;;;;3.40;2.20;;;14.70;99.90;;;;;;2063332;28;20158;-68
2022/06/14 04:31:31;;;;;;;6.60;2.33;;;14.90;99.90;;;;;;2063798;28;20046;-69
2022/06/14 04:32:55;;;;;;;5.18;2.20;;;14.90;99.90;;;;;;2063706;28;20030;-68
2022/06/14 04:34:12;;;;;;;6.45;2.50;;;15.00;99.90;;;;;;2063563;28;20049;-70
2022/06/14 04:35:33;;;;;;;2.67;1.90;;;14.90;99.90;;;;;;2063620;28;20027;-68
2022/06/14 04:36:56;;;;;;;2.92;1.90;;;14.90;99.90;;;;;;2063674;28;20513;-70
2022/06/14 04:38:08;;;;;;;4.78;2.20;;;14.80;99.90;;;;;;2054873;28;20477;-69
2022/06/14 04:39:15;;;;;;;3.97;2.25;;;15.00;99.90;;;;;;2056633;28;20783;-70
2022/06/14 04:40:24;;;;;;;4.50;1.90;;;15.30;99.90;;;;;;2063096;28;20030;-70
2022/06/14 04:41:39;;;;;;;4.30;1.90;;;15.80;99.90;;;;;;2054941;28;20066;-68
2022/06/14 04:43:05;;;;;;;5.38;2.00;;;16.40;99.90;;;;;;2057108;28;20019;-68
2022/06/14 04:44:19;;;;;;;4.30;1.83;;;16.90;99.90;;;;;;2063458;28;20072;-69
2022/06/14 04:45:32;;;;;;;5.65;2.03;;;17.40;99.50;;;;;;2063611;28;20018;-69
2022/06/14 04:46:42;;;;;;;3.92;1.90;;;17.80;97.00;;;;;;2063689;28;20117;-70
2022/06/14 04:48:02;;;;;;;4.18;1.80;;;18.00;95.30;;;;;;2063556;28;20138;-69
2022/06/14 04:49:14;;;;;;;5.82;1.83;;;18.20;94.40;;;;;;2063562;28;20053;-67
2022/06/14 04:50:21;;;;;;;5.15;1.83;;;18.30;93.00;;;;;;2063050;28;20030;-68
2022/06/14 04:51:34;;;;;;;3.05;1.65;;;18.50;92.40;;;;;;2063650;28;20097;-68
2022/06/14 04:52:41;;;;;;;3.95;1.73;;;18.80;91.90;;;;;;2063782;28;20037;-68
2022/06/14 04:54:16;;;;;;;5.05;1.85;;;19.10;91.00;;;;;;2063568;28;20041;-67
2022/06/14 04:55:23;;;;;;;3.47;1.60;;;19.10;88.70;;;;;;2063557;28;20049;-68
2022/06/14 04:56:31;;;;;;;3.55;1.70;;;19.00;88.20;;;;;;2063607;28;20114;-68
2022/06/14 04:57:44;;;;;;;3.30;1.80;;;19.10;87.40;;;;;;2063610;28;20046;-68
2022/06/14 04:59:00;;;;;;;3.25;1.70;;;19.30;87.10;;;;;;2063443;28;20030;-68
2022/06/14 05:00:11;;;;;;;4.47;1.80;;;19.60;85.80;;;;;;2063089;28;20095;-68
2022/06/14 05:01:19;;;;;;;4.10;2.10;;;20.00;83.00;;;;;;2063468;28;20026;-68
2022/06/14 05:02:45;;;;;;;4.78;1.90;;;20.10;80.50;;;;;;2063373;28;20042;-68
2022/06/14 05:04:21;;;;;;;6.25;2.38;;;20.30;77.60;;;;;;2063135;28;20085;-68
2022/06/14 05:05:36;;;;;;;4.45;1.80;;;20.10;77.00;;;;;;2063376;28;20152;-68
2022/06/14 05:07:04;;;;;;;3.80;1.48;;;19.80;76.10;;;;;;2063530;28;20033;-70
2022/06/14 05:08:34;;;;;;;3.28;1.60;;;19.50;76.60;;;;;;2063703;28;20026;-71
2022/06/14 05:09:41;;;;;;;3.50;1.73;;;19.30;77.80;;;;;;2054738;28;20027;-70
2022/06/14 05:11:08;;;;;;;4.13;1.98;;;18.80;79.80;;;;;;2055283;28;20035;-69
2022/06/14 05:12:22;;;;;;;3.10;1.80;;;18.70;81.10;;;;;;2063414;28;20031;-70
2022/06/14 05:13:34;;;;;;;4.43;1.50;;;18.80;79.80;;;;;;2054652;28;20106;-70
2022/06/14 05:14:47;;;;;;;3.30;1.63;;;19.00;79.70;;;;;;2056486;28;20553;-71
2022/06/14 05:16:03;;;;;;;4.10;1.80;;;19.30;79.20;;;;;;2063558;28;20066;-71
2022/06/14 05:17:10;;;;;;;4.95;1.55;;;19.30;78.90;;;;;;2063432;28;20042;-72
2022/06/14 05:18:29;;;;;;;3.30;1.42;;;19.40;77.40;;;;;;2063545;28;20530;-72
2022/06/14 05:19:36;;;;;;;3.60;1.90;;;19.50;77.20;;;;;;2063545;28;20030;-72
2022/06/14 05:20:48;;;;;;;3.40;1.50;;;19.60;75.60;;;;;;2063021;28;20045;-71
2022/06/14 05:21:56;;;;;;;2.70;1.60;;;19.60;75.40;;;;;;2063589;28;20030;-72
2022/06/14 05:23:24;;;;;;;4.25;1.90;;;19.90;74.90;;;;;;2063392;28;20065;-72
2022/06/14 05:24:26;;;;;;;5.70;1.90;;;20.20;73.30;;;;;;2063301;28;20023;-71
2022/06/14 05:25:59;;;;;;;3.10;1.60;;;20.40;72.80;;;;;;2063540;28;20026;-72
2022/06/14 05:27:24;;;;;;;4.63;1.58;;;20.80;71.00;;;;;;2063503;28;20033;-72
2022/06/14 05:28:36;;;;;;;7.60;1.92;;;21.10;69.30;;;;;;2063229;28;20029;-70
2022/06/14 05:29:45;;;;;;;3.20;1.67;;;21.10;68.60;;;;;;2063352;28;20042;-71
2022/06/14 05:31:33;;;;;;;3.78;1.55;;;20.80;69.10;;;;;;2062869;28;20386;-70
2022/06/14 05:32:56;;;;;;;4.32;1.83;;;20.40;70.10;;;;;;2025676;28;20051;-70
2022/06/14 05:34:12;;;;;;;4.40;1.92;;;20.20;70.70;;;;;;2063216;28;20026;-70
2022/06/14 05:35:29;;;;;;;4.18;1.73;;;20.00;70.70;;;;;;2063057;28;20125;-70
2022/06/14 05:36:37;;;;;;;5.18;1.80;;;19.70;70.90;;;;;;2062985;28;20037;-70
2022/06/14 05:38:10;;;;;;;4.88;1.90;;;19.40;72.00;;;;;;2063417;28;20069;-70
2022/06/14 05:39:46;;;;;;;4.40;1.80;;;19.20;74.00;;;;;;2063517;28;20409;-71
2022/06/14 05:41:00;;;;;;;3.70;2.10;;;18.80;74.10;;;;;;2051979;28;20572;-70
2022/06/14 05:42:09;;;;;;;4.72;1.92;;;18.70;75.30;;;;;;2063141;28;20030;-71
2022/06/14 05:43:33;;;;;;;4.97;1.80;;;18.80;75.80;;;;;;2063228;28;20022;-73
2022/06/14 05:44:42;;;;;;;5.10;1.90;;;19.10;74.90;;;;;;2053655;28;20060;-71
2022/06/14 05:45:47;;;;;;;5.38;2.00;;;19.20;73.30;;;;;;2055654;28;20042;-72
2022/06/14 05:46:52;;;;;;;6.32;1.77;;;19.10;73.20;;;;;;2063365;28;20048;-72
2022/06/14 05:48:08;;;;;;;5.10;1.98;;;19.10;73.30;;;;;;2054597;28;20564;-72
2022/06/14 05:49:19;;;;;;;5.63;1.92;;;18.80;74.30;;;;;;2040615;29;20358;-70
2022/06/14 05:50:25;;;;;;;6.20;2.15;;;18.70;75.10;;;;;;2049252;28;20115;-71
2022/06/14 05:51:33;;;;;;;5.00;1.80;;;18.30;75.60;;;;;;2063190;28;20022;-72
2022/06/14 05:52:44;;;;;;;4.35;1.90;;;18.10;76.70;;;;;;2063109;28;20806;-71
2022/06/14 05:54:24;;;;;;;4.60;1.80;;;17.90;78.00;;;;;;2063172;28;20030;-71
2022/06/14 05:55:32;;;;;;;5.53;2.00;;;17.80;78.90;;;;;;2058358;28;20097;-73
2022/06/14 05:56:39;;;;;;;2.95;1.90;;;17.60;80.80;;;;;;2063425;28;20571;-72
2022/06/14 05:57:55;;;;;;;4.22;1.90;;;17.50;81.20;;;;;;2054529;28;20117;-72
2022/06/14 05:59:12;;;;;;;4.05;1.90;;;17.40;81.40;;;;;;2057005;28;20019;-71
2022/06/14 06:00:25;;;;;;;5.90;2.13;;;17.30;81.50;;;;;;2062693;28;20073;-72
2022/06/14 06:01:37;;;;;;;5.45;2.00;;;17.20;82.00;;;;;;2063117;28;20022;-72
2022/06/14 06:02:54;;;;;;;5.15;2.00;;;17.00;82.70;;;;;;2063271;28;20045;-69
2022/06/14 06:04:09;;;;;;;8.38;2.33;;;17.10;83.80;;;;;;2063096;28;20396;-68
2022/06/14 06:05:27;;;;;;;5.43;1.92;;;17.00;85.40;;;;;;2063253;28;20037;-68
2022/06/14 06:06:37;;;;;;;5.53;2.20;;;17.00;85.60;;;;;;2054263;28;20074;-69
2022/06/14 06:07:47;;;;;;;5.28;1.90;;;16.90;85.20;;;;;;2055843;28;20062;-69
2022/06/14 06:09:03;;;;;;;5.65;2.10;;;17.10;85.50;;;;;;2063162;28;20045;-69
2022/06/14 06:10:16;;;;;;;5.78;2.20;;;17.30;85.00;;;;;;2062745;28;20034;-69
2022/06/14 06:11:35;;;;;;;4.88;2.22;;;17.40;84.80;;;;;;2063239;28;20448;-69
2022/06/14 06:12:43;;;;;;;6.55;2.05;;;17.40;85.90;;;;;;2063003;28;20027;-68
2022/06/14 06:13:49;;;;;;;7.18;2.20;;;17.60;84.90;;;;;;2063010;28;20117;-68
2022/06/14 06:14:56;;;;;;;6.68;2.20;;;17.80;84.40;;;;;;2063019;28;20041;-69
2022/06/14 06:16:18;;;;;;;6.78;2.28;;;17.90;82.80;;;;;;2053954;28;20106;-68
2022/06/14 06:17:49;;;;;;;6.25;2.08;;;18.00;82.20;;;;;;2057402;28;20038;-68
2022/06/14 06:18:58;;;;;;;5.82;2.30;;;18.10;81.80;;;;;;2062484;28;20037;-69
2022/06/14 06:20:26;;;;;;;4.30;1.92;;;18.20;82.50;;;;;;2062802;28;20034;-68